Time;durP1;ratioP1;P1;durP2;ratioP2;P2;SDS_P1;SDS_P2;PMS_P1;PMS_P2;Temp;Humidity;BMP_temperature;BMP_pressure;BME280_temperature;BME280_humidity;BME280_pressure;Samples;Min_cycle;Max_cycle;Signal;HPM_P1;HPM_P2
2022/10/18 00:00:43;;;;;;;;;;;18.10;99.90;;;;;;5047852;28;19917;-87
2022/10/18 00:03:08;;;;;;;;;;;18.20;99.90;;;;;;5030958;28;20701;-85
2022/10/18 00:05:34;;;;;;;;;;;18.10;99.90;;;;;;5046040;28;20486;-85
2022/10/18 00:08:00;;;;;;;;;;;18.10;99.90;;;;;;5047552;28;19917;-86
2022/10/18 00:10:25;;;;;;;;;;;18.10;99.90;;;;;;5033621;28;20022;-85
2022/10/18 00:12:51;;;;;;;;;;;18.00;99.90;;;;;;5046470;28;19932;-86
2022/10/18 00:15:17;;;;;;;;;;;17.90;99.90;;;;;;5046748;28;19931;-85
2022/10/18 00:17:42;;;;;;;;;;;18.00;99.90;;;;;;5046533;28;19919;-86
2022/10/18 00:20:08;;;;;;;;;;;18.10;99.90;;;;;;5028622;28;19916;-86
2022/10/18 00:22:35;;;;;;;;;;;18.10;99.90;;;;;;5045757;28;19924;-86
2022/10/18 00:25:00;;;;;;;;;;;18.00;99.90;;;;;;5029686;28;19920;-85
2022/10/18 00:27:28;;;;;;;;;;;17.90;99.90;;;;;;5048178;28;20790;-85
2022/10/18 00:29:53;;;;;;;;;;;17.90;99.90;;;;;;5033032;28;19932;-85
2022/10/18 00:32:19;;;;;;;;;;;18.00;99.90;;;;;;5049857;28;19917;-86
2022/10/18 00:34:44;;;;;;;;;;;18.00;99.90;;;;;;5050498;28;20027;-86
2022/10/18 00:37:10;;;;;;;;;;;17.90;99.90;;;;;;5050203;28;19928;-84
2022/10/18 00:39:36;;;;;;;;;;;17.70;99.90;;;;;;5049624;28;20710;-84
2022/10/18 00:42:02;;;;;;;;;;;17.60;99.90;;;;;;5049275;28;19986;-84
2022/10/18 00:44:27;;;;;;;;;;;17.50;99.90;;;;;;5042846;28;20012;-84
2022/10/18 00:47:02;;;;;;;;;;;17.40;99.90;;;;;;5031398;28;20007;-84
2022/10/18 00:49:30;;;;;;;;;;;17.40;99.90;;;;;;5030705;28;19960;-84
2022/10/18 00:52:03;;;;;;;;;;;17.40;99.90;;;;;;5050465;28;20461;-85
2022/10/18 00:54:30;;;;;;;;;;;17.40;99.90;;;;;;5032018;28;20384;-85
2022/10/18 00:56:56;;;;;;;;;;;17.60;99.90;;;;;;5032065;28;19948;-84
2022/10/18 00:59:22;;;;;;;;;;;17.60;99.90;;;;;;5049474;28;20488;-84
2022/10/18 01:01:47;;;;;;;;;;;17.60;99.90;;;;;;5031594;28;19980;-84
2022/10/18 01:04:14;;;;;;;;;;;17.70;99.90;;;;;;5049665;28;19917;-85
2022/10/18 01:06:43;;;;;;;;;;;17.80;99.90;;;;;;5038770;28;19921;-84
2022/10/18 01:09:24;;;;;;;;;;;17.80;99.90;;;;;;5038216;28;19916;-84
2022/10/18 01:12:12;;;;;;;;;;;17.80;99.90;;;;;;5049774;28;19970;-83
2022/10/18 01:14:48;;;;;;;;;;;17.80;99.90;;;;;;5033086;28;19963;-84
2022/10/18 01:17:24;;;;;;;;;;;17.80;99.90;;;;;;5025783;28;19917;-85
2022/10/18 01:20:10;;;;;;;;;;;17.80;99.90;;;;;;5049981;28;20476;-84
2022/10/18 01:22:42;;;;;;;;;;;17.70;99.90;;;;;;5049032;28;19913;-84
2022/10/18 01:25:13;;;;;;;;;;;17.50;99.90;;;;;;5049480;28;19916;-84
2022/10/18 01:27:45;;;;;;;;;;;17.60;99.90;;;;;;5025414;28;19913;-85
2022/10/18 01:30:33;;;;;;;;;;;17.50;99.90;;;;;;5026096;28;19917;-84
2022/10/18 01:33:12;;;;;;;;;;;17.50;99.90;;;;;;5040086;28;20743;-85
2022/10/18 01:35:40;;;;;;;;;;;17.30;99.90;;;;;;5043709;28;19916;-84
2022/10/18 01:38:10;;;;;;;;;;;17.40;99.90;;;;;;5049526;28;19909;-85
2022/10/18 01:40:37;;;;;;;;;;;17.40;99.90;;;;;;5048600;28;19955;-86
2022/10/18 01:43:03;;;;;;;;;;;17.40;99.90;;;;;;5048236;28;19917;-88
2022/10/18 01:45:29;;;;;;;;;;;17.30;99.90;;;;;;5031199;28;19912;-88
2022/10/18 01:47:55;;;;;;;;;;;17.20;99.90;;;;;;5049141;28;19916;-87
2022/10/18 01:50:31;;;;;;;;;;;17.20;99.90;;;;;;5049244;28;19999;-88
2022/10/18 01:52:56;;;;;;;;;;;17.30;99.90;;;;;;5027562;28;19912;-87
2022/10/18 01:55:25;;;;;;;;;;;17.20;99.90;;;;;;5046381;28;20537;-88
2022/10/18 01:57:57;;;;;;;;;;;17.40;99.90;;;;;;5058163;28;19916;-87
2022/10/18 02:00:23;;;;;;;;;;;17.30;99.90;;;;;;5040398;28;20403;-88
2022/10/18 02:02:52;;;;;;;;;;;17.40;99.90;;;;;;5024474;28;19923;-85
2022/10/18 02:05:31;;;;;;;;;;;17.50;99.90;;;;;;5039995;28;19924;-84
2022/10/18 02:08:01;;;;;;;;;;;17.50;99.90;;;;;;5036724;28;19974;-84
2022/10/18 02:10:30;;;;;;;;;;;17.50;99.90;;;;;;5044288;28;19921;-85
2022/10/18 02:12:57;;;;;;;;;;;17.50;99.90;;;;;;5049401;28;20003;-85
2022/10/18 02:15:24;;;;;;;;;;;17.40;99.90;;;;;;5048082;28;20042;-85
2022/10/18 02:17:52;;;;;;;;;;;17.40;99.90;;;;;;5042210;28;19923;-86
2022/10/18 02:20:19;;;;;;;;;;;17.30;99.90;;;;;;5048011;28;19917;-84
2022/10/18 02:22:45;;;;;;;;;;;17.30;99.90;;;;;;5029929;28;20023;-84
2022/10/18 02:25:14;;;;;;;;;;;17.30;99.90;;;;;;5049274;28;20011;-84
2022/10/18 02:27:40;;;;;;;;;;;17.40;99.90;;;;;;5044440;28;19924;-84
2022/10/18 02:30:05;;;;;;;;;;;17.40;99.90;;;;;;5048651;28;20387;-84
2022/10/18 02:32:36;;;;;;;;;;;17.40;99.90;;;;;;5029876;28;19921;-85
2022/10/18 02:35:02;;;;;;;;;;;17.40;99.90;;;;;;5028793;28;19921;-85
2022/10/18 02:37:30;;;;;;;;;;;17.20;99.90;;;;;;5047864;28;20051;-86
2022/10/18 02:39:55;;;;;;;;;;;17.20;99.90;;;;;;5048006;28;20414;-85
2022/10/18 02:42:21;;;;;;;;;;;17.20;99.90;;;;;;5048606;28;19983;-84
2022/10/18 02:44:46;;;;;;;;;;;17.30;99.90;;;;;;5046504;28;19917;-84
2022/10/18 02:47:12;;;;;;;;;;;17.30;99.90;;;;;;5029707;28;20035;-83
2022/10/18 02:49:38;;;;;;;;;;;17.20;99.90;;;;;;5047035;28;19999;-83
2022/10/18 02:52:03;;;;;;;;;;;17.20;99.90;;;;;;5048351;28;19912;-82
2022/10/18 02:54:29;;;;;;;;;;;17.30;99.90;;;;;;5034638;28;20422;-82
2022/10/18 02:56:54;;;;;;;;;;;17.20;99.90;;;;;;5030119;28;20492;-83
2022/10/18 02:59:20;;;;;;;;;;;17.30;99.90;;;;;;5047789;28;19944;-83
2022/10/18 03:01:45;;;;;;;;;;;17.50;99.90;;;;;;5046942;28;19920;-84
2022/10/18 03:04:11;;;;;;;;;;;17.50;99.90;;;;;;5042663;28;19920;-85
2022/10/18 03:06:36;;;;;;;;;;;17.40;99.90;;;;;;5045307;28;19932;-85
2022/10/18 03:09:03;;;;;;;;;;;17.30;99.90;;;;;;5038155;28;19955;-84
2022/10/18 03:11:29;;;;;;;;;;;17.20;99.90;;;;;;5047829;28;19970;-86
2022/10/18 03:13:55;;;;;;;;;;;17.00;99.90;;;;;;5047878;28;19925;-85
2022/10/18 03:16:20;;;;;;;;;;;17.00;99.90;;;;;;5029370;28;20438;-86
2022/10/18 03:18:46;;;;;;;;;;;16.90;99.90;;;;;;5047782;28;20364;-85
2022/10/18 03:21:11;;;;;;;;;;;16.80;99.90;;;;;;5028993;28;19980;-82
2022/10/18 03:23:37;;;;;;;;;;;16.80;99.90;;;;;;5046166;28;19916;-82
2022/10/18 03:26:03;;;;;;;;;;;16.70;99.90;;;;;;5047503;28;19920;-84
2022/10/18 03:28:28;;;;;;;;;;;16.60;99.90;;;;;;5033539;28;19917;-83
2022/10/18 03:30:58;;;;;;;;;;;16.60;99.90;;;;;;5047760;28;19920;-83
2022/10/18 03:33:24;;;;;;;;;;;16.60;99.90;;;;;;5045850;28;20436;-84
2022/10/18 03:35:50;;;;;;;;;;;16.60;99.90;;;;;;5046369;28;20015;-84
2022/10/18 03:38:15;;;;;;;;;;;16.50;99.90;;;;;;5048238;28;19917;-84
2022/10/18 03:40:41;;;;;;;;;;;16.60;99.90;;;;;;5045677;28;19932;-85
2022/10/18 03:43:06;;;;;;;;;;;16.70;99.90;;;;;;5028261;28;19917;-84
2022/10/18 03:45:32;;;;;;;;;;;16.70;99.90;;;;;;5050506;28;19917;-84
2022/10/18 03:47:57;;;;;;;;;;;16.70;99.90;;;;;;5047088;28;19921;-85
2022/10/18 03:50:23;;;;;;;;;;;16.90;99.90;;;;;;5046910;28;19917;-84
2022/10/18 03:52:48;;;;;;;;;;;16.80;99.90;;;;;;5028665;28;19921;-85
2022/10/18 03:55:14;;;;;;;;;;;16.80;99.90;;;;;;5047369;28;20066;-84
2022/10/18 03:57:39;;;;;;;;;;;16.80;99.90;;;;;;5029485;28;19912;-84
2022/10/18 04:00:05;;;;;;;;;;;16.70;99.90;;;;;;5032134;28;19919;-85
2022/10/18 04:02:31;;;;;;;;;;;16.80;99.90;;;;;;5050073;28;19916;-84
2022/10/18 04:04:57;;;;;;;;;;;16.80;99.90;;;;;;5049931;28;19924;-84
2022/10/18 04:07:23;;;;;;;;;;;16.80;99.90;;;;;;5049048;28;20003;-83
2022/10/18 04:09:48;;;;;;;;;;;16.80;99.90;;;;;;5049153;28;20027;-83
2022/10/18 04:12:14;;;;;;;;;;;16.90;99.90;;;;;;5052026;28;20459;-83
2022/10/18 04:14:39;;;;;;;;;;;16.90;99.90;;;;;;5050895;28;19947;-84
2022/10/18 04:17:05;;;;;;;;;;;16.80;99.90;;;;;;5050784;28;19916;-84
2022/10/18 04:19:30;;;;;;;;;;;16.80;99.90;;;;;;5051087;28;19928;-84
2022/10/18 04:21:56;;;;;;;;;;;16.80;99.90;;;;;;5051721;28;20692;-86
2022/10/18 04:24:21;;;;;;;;;;;16.70;99.90;;;;;;5050385;28;19920;-84
2022/10/18 04:26:47;;;;;;;;;;;16.80;99.90;;;;;;5032161;28;19917;-85
2022/10/18 04:29:13;;;;;;;;;;;16.90;99.90;;;;;;5050661;28;20521;-86
2022/10/18 04:31:38;;;;;;;;;;;17.10;99.90;;;;;;5050644;28;20003;-85
2022/10/18 04:34:04;;;;;;;;;;;17.10;99.90;;;;;;5051549;28;19920;-85
2022/10/18 04:36:30;;;;;;;;;;;17.20;99.90;;;;;;5059466;28;20650;-84
2022/10/18 04:38:55;;;;;;;;;;;17.20;99.90;;;;;;5054981;28;19916;-84
2022/10/18 04:41:21;;;;;;;;;;;17.20;99.90;;;;;;5049389;28;19924;-87
2022/10/18 04:43:46;;;;;;;;;;;17.40;99.90;;;;;;5050776;28;20720;-84
2022/10/18 04:46:12;;;;;;;;;;;17.30;99.90;;;;;;5030509;28;20268;-83
2022/10/18 04:48:38;;;;;;;;;;;17.10;99.90;;;;;;5031694;28;19917;-82
2022/10/18 04:51:03;;;;;;;;;;;17.10;99.90;;;;;;5048500;28;19959;-84
2022/10/18 04:53:29;;;;;;;;;;;17.20;99.90;;;;;;5032423;28;19917;-84
2022/10/18 04:55:54;;;;;;;;;;;17.10;99.90;;;;;;5029894;28;19925;-83
2022/10/18 04:58:20;;;;;;;;;;;17.10;99.90;;;;;;5032435;28;20017;-85
2022/10/18 05:00:46;;;;;;;;;;;17.10;99.90;;;;;;5050031;28;19927;-86
2022/10/18 05:03:12;;;;;;;;;;;17.20;99.90;;;;;;5032677;28;19919;-86
2022/10/18 05:05:38;;;;;;;;;;;17.10;99.90;;;;;;5031160;28;19968;-85
2022/10/18 05:08:04;;;;;;;;;;;16.90;99.90;;;;;;5049663;28;19960;-83
2022/10/18 05:10:29;;;;;;;;;;;17.10;99.90;;;;;;5029611;28;20392;-82
2022/10/18 05:12:55;;;;;;;;;;;17.00;99.90;;;;;;5047680;28;20554;-84
2022/10/18 05:15:20;;;;;;;;;;;16.90;99.90;;;;;;5044247;28;19925;-83
2022/10/18 05:17:46;;;;;;;;;;;16.80;99.90;;;;;;5025631;28;19935;-83
2022/10/18 05:20:11;;;;;;;;;;;16.70;99.90;;;;;;5033298;28;19940;-83
2022/10/18 05:22:37;;;;;;;;;;;16.60;99.90;;;;;;5030981;28;19917;-84
2022/10/18 05:25:02;;;;;;;;;;;16.60;99.90;;;;;;5044372;28;20416;-83
2022/10/18 05:27:28;;;;;;;;;;;16.60;99.90;;;;;;5046888;28;19924;-83
2022/10/18 05:29:53;;;;;;;;;;;16.60;99.90;;;;;;5047009;28;19943;-83
2022/10/18 05:32:19;;;;;;;;;;;16.60;99.90;;;;;;5048041;28;20011;-84
2022/10/18 05:34:45;;;;;;;;;;;16.60;99.90;;;;;;5038417;28;19925;-84
2022/10/18 05:37:10;;;;;;;;;;;16.60;99.90;;;;;;5047695;28;19925;-84
2022/10/18 05:39:37;;;;;;;;;;;16.50;99.90;;;;;;5049521;28;19921;-85
2022/10/18 05:42:03;;;;;;;;;;;16.50;99.90;;;;;;5031438;28;19913;-84
2022/10/18 05:44:28;;;;;;;;;;;16.60;99.90;;;;;;5031024;28;19921;-84
2022/10/18 05:46:54;;;;;;;;;;;16.60;99.90;;;;;;5049982;28;19920;-84
2022/10/18 05:49:19;;;;;;;;;;;16.60;99.90;;;;;;5030919;28;20648;-84
2022/10/18 05:51:45;;;;;;;;;;;16.60;99.90;;;;;;5030780;28;19939;-86
2022/10/18 05:54:10;;;;;;;;;;;16.60;99.90;;;;;;5047284;28;20623;-85
2022/10/18 05:56:36;;;;;;;;;;;16.50;99.90;;;;;;5049340;28;20018;-83
2022/10/18 05:59:03;;;;;;;;;;;16.50;99.90;;;;;;5049397;28;19917;-84
2022/10/18 06:01:29;;;;;;;;;;;16.60;99.90;;;;;;5048777;28;19912;-83
2022/10/18 06:03:55;;;;;;;;;;;16.50;99.90;;;;;;5045425;28;19923;-84
2022/10/18 06:06:21;;;;;;;;;;;16.50;99.90;;;;;;5031225;28;20520;-86
2022/10/18 06:08:48;;;;;;;;;;;16.40;99.90;;;;;;5051045;28;19913;-84
2022/10/18 06:11:14;;;;;;;;;;;16.50;99.90;;;;;;5048286;28;19958;-84
2022/10/18 06:13:41;;;;;;;;;;;16.60;99.90;;;;;;5049465;28;19924;-84
2022/10/18 06:16:07;;;;;;;;;;;16.60;99.90;;;;;;5049526;28;19919;-84
2022/10/18 06:18:32;;;;;;;;;;;16.60;99.90;;;;;;5048322;28;19913;-84
2022/10/18 06:20:58;;;;;;;;;;;16.80;99.90;;;;;;5031067;28;19913;-84
2022/10/18 06:23:24;;;;;;;;;;;16.80;99.90;;;;;;5047580;28;19919;-83
2022/10/18 06:25:50;;;;;;;;;;;16.90;99.90;;;;;;5048432;28;19962;-83
2022/10/18 06:28:15;;;;;;;;;;;17.00;99.90;;;;;;5045636;28;19920;-84
2022/10/18 06:30:41;;;;;;;;;;;17.30;99.90;;;;;;5048016;28;20011;-83
2022/10/18 06:33:06;;;;;;;;;;;17.40;99.90;;;;;;5048004;28;20380;-82
2022/10/18 06:35:32;;;;;;;;;;;17.60;99.90;;;;;;5047914;28;19939;-84
2022/10/18 06:37:57;;;;;;;;;;;17.80;99.90;;;;;;5030787;28;19923;-88
2022/10/18 06:40:23;;;;;;;;;;;18.00;99.90;;;;;;5029820;28;19917;-84
2022/10/18 06:42:48;;;;;;;;;;;18.20;99.90;;;;;;5046418;28;20455;-83
2022/10/18 06:45:17;;;;;;;;;;;18.40;99.90;;;;;;5031453;28;19923;-82
2022/10/18 06:47:42;;;;;;;;;;;18.60;99.90;;;;;;5047733;28;19917;-82
2022/10/18 06:50:08;;;;;;;;;;;18.80;99.90;;;;;;5049442;28;19924;-82
2022/10/18 06:52:34;;;;;;;;;;;19.00;99.90;;;;;;5048400;28;19920;-83
2022/10/18 06:54:59;;;;;;;;;;;19.10;99.90;;;;;;5048095;28;20426;-83
2022/10/18 06:57:25;;;;;;;;;;;19.20;99.90;;;;;;5029763;28;19913;-83
2022/10/18 06:59:50;;;;;;;;;;;19.50;99.90;;;;;;5048315;28;19921;-83
2022/10/18 07:02:16;;;;;;;;;;;19.60;99.90;;;;;;5047993;28;19913;-83
2022/10/18 07:04:42;;;;;;;;;;;19.80;99.90;;;;;;5051464;28;20354;-83
2022/10/18 07:07:08;;;;;;;;;;;20.00;99.90;;;;;;5033535;28;19952;-83
2022/10/18 07:09:33;;;;;;;;;;;20.30;99.90;;;;;;5030495;28;20042;-83
2022/10/18 07:11:59;;;;;;;;;;;20.40;99.90;;;;;;5052193;28;20333;-83
2022/10/18 07:14:24;;;;;;;;;;;20.70;99.90;;;;;;5048460;28;19920;-84
2022/10/18 07:16:50;;;;;;;;;;;20.90;99.90;;;;;;5047849;28;19913;-83
2022/10/18 07:19:15;;;;;;;;;;;20.90;99.90;;;;;;5029868;28;19913;-83
2022/10/18 07:21:41;;;;;;;;;;;21.10;99.90;;;;;;5030379;28;20434;-83
2022/10/18 07:24:06;;;;;;;;;;;21.10;99.90;;;;;;5048462;28;19943;-83
2022/10/18 07:26:33;;;;;;;;;;;21.20;99.90;;;;;;5048725;28;20015;-83
2022/10/18 07:29:09;;;;;;;;;;;21.40;99.90;;;;;;5048898;28;19920;-83
2022/10/18 07:31:37;;;;;;;;;;;21.60;99.90;;;;;;5048305;28;19919;-83
2022/10/18 07:34:03;;;;;;;;;;;21.80;99.90;;;;;;5057085;28;20020;-83
2022/10/18 07:36:29;;;;;;;;;;;21.70;99.90;;;;;;5052361;28;19944;-83
2022/10/18 07:38:55;;;;;;;;;;;21.70;99.90;;;;;;5034146;28;20403;-82
2022/10/18 07:41:21;;;;;;;;;;;21.90;99.90;;;;;;5034436;28;19944;-82
2022/10/18 07:43:49;;;;;;;;;;;21.90;99.90;;;;;;5052010;28;20391;-83
2022/10/18 07:46:15;;;;;;;;;;;21.80;99.90;;;;;;5051657;28;19919;-83
2022/10/18 07:48:40;;;;;;;;;;;21.90;99.90;;;;;;5033464;28;20358;-83
2022/10/18 07:51:06;;;;;;;;;;;21.90;99.90;;;;;;5051329;28;19909;-83
2022/10/18 07:53:33;;;;;;;;;;;22.10;99.90;;;;;;5052196;28;20389;-83
2022/10/18 07:56:14;;;;;;;;;;;22.40;99.90;;;;;;5051327;28;20702;-83
2022/10/18 07:58:40;;;;;;;;;;;22.70;99.90;;;;;;5051530;28;19962;-83
2022/10/18 08:01:06;;;;;;;;;;;22.60;99.90;;;;;;5051427;28;20311;-82
2022/10/18 08:03:32;;;;;;;;;;;22.90;99.90;;;;;;5051802;28;19913;-83
2022/10/18 08:05:58;;;;;;;;;;;22.70;99.90;;;;;;5055255;28;19962;-82
2022/10/18 08:08:24;;;;;;;;;;;22.80;99.90;;;;;;5051579;28;20459;-83
2022/10/18 08:10:49;;;;;;;;;;;22.90;99.90;;;;;;5047689;28;19947;-83
2022/10/18 08:13:15;;;;;;;;;;;23.10;99.90;;;;;;5033356;28;19913;-83
2022/10/18 08:15:41;;;;;;;;;;;23.30;99.40;;;;;;5033453;28;19938;-83
2022/10/18 08:18:06;;;;;;;;;;;23.20;99.20;;;;;;5051565;28;19913;-83
2022/10/18 08:20:32;;;;;;;;;;;23.40;99.50;;;;;;5061809;28;19912;-84
2022/10/18 08:22:58;;;;;;;;;;;23.40;98.90;;;;;;5057467;28;19913;-82
2022/10/18 08:25:24;;;;;;;;;;;23.40;98.70;;;;;;5057523;28;19913;-82
2022/10/18 08:27:49;;;;;;;;;;;23.50;99.30;;;;;;5057627;28;19913;-83
2022/10/18 08:30:15;;;;;;;;;;;23.60;98.00;;;;;;5051018;28;19912;-83
2022/10/18 08:32:40;;;;;;;;;;;23.70;99.00;;;;;;5058008;28;19995;-83
2022/10/18 08:35:06;;;;;;;;;;;24.10;97.90;;;;;;5050961;28;19916;-83
2022/10/18 08:37:32;;;;;;;;;;;24.40;97.50;;;;;;5051023;28;20332;-83
2022/10/18 08:39:57;;;;;;;;;;;24.00;97.00;;;;;;5050503;28;19912;-83
2022/10/18 08:42:32;;;;;;;;;;;24.20;96.30;;;;;;5050424;28;19972;-83
2022/10/18 08:44:58;;;;;;;;;;;23.70;96.30;;;;;;5058691;28;19919;-82
2022/10/18 08:47:33;;;;;;;;;;;24.30;97.30;;;;;;5049722;28;19913;-83
2022/10/18 08:50:04;;;;;;;;;;;24.10;96.50;;;;;;5050759;28;19920;-83
2022/10/18 08:52:37;;;;;;;;;;;24.30;96.10;;;;;;5050651;28;19996;-83
2022/10/18 08:55:08;;;;;;;;;;;24.80;96.20;;;;;;5039774;28;20019;-83
2022/10/18 08:57:34;;;;;;;;;;;24.80;95.70;;;;;;5050180;28;19959;-83
2022/10/18 09:00:01;;;;;;;;;;;24.60;95.10;;;;;;5032432;28;19944;-83
2022/10/18 09:02:29;;;;;;;;;;;25.00;95.80;;;;;;5050250;28;19928;-83
2022/10/18 09:05:15;;;;;;;;;;;24.80;94.90;;;;;;5050776;28;19913;-83
2022/10/18 09:07:59;;;;;;;;;;;25.40;94.80;;;;;;5050671;28;19923;-83
2022/10/18 09:10:28;;;;;;;;;;;25.70;95.10;;;;;;5050582;28;19927;-83
2022/10/18 09:13:12;;;;;;;;;;;25.90;93.70;;;;;;5032193;28;19916;-83
2022/10/18 09:15:38;;;;;;;;;;;26.00;93.20;;;;;;5055601;28;19928;-83
2022/10/18 09:18:22;;;;;;;;;;;26.20;92.40;;;;;;5056890;28;19912;-83
2022/10/18 09:20:57;;;;;;;;;;;25.90;93.80;;;;;;5046561;28;19913;-83
2022/10/18 09:23:39;;;;;;;;;;;25.70;92.50;;;;;;5050102;28;19935;-83
2022/10/18 09:26:09;;;;;;;;;;;24.90;92.70;;;;;;5048746;28;19912;-82
2022/10/18 09:28:53;;;;;;;;;;;25.20;93.20;;;;;;5049477;28;19919;-83
2022/10/18 09:31:24;;;;;;;;;;;25.30;94.50;;;;;;5045590;28;20457;-82
2022/10/18 09:33:52;;;;;;;;;;;24.90;93.30;;;;;;5049366;28;20815;-83
2022/10/18 09:36:20;;;;;;;;;;;24.80;93.30;;;;;;5031875;28;20378;-83
2022/10/18 09:38:57;;;;;;;;;;;24.90;93.70;;;;;;5031363;28;20454;-83
2022/10/18 09:41:25;;;;;;;;;;;24.60;93.80;;;;;;5031627;28;19916;-83
2022/10/18 09:44:02;;;;;;;;;;;24.60;94.00;;;;;;5049606;28;19919;-83
2022/10/18 09:46:32;;;;;;;;;;;25.10;94.70;;;;;;5031689;28;20326;-82
2022/10/18 09:49:14;;;;;;;;;;;24.80;93.70;;;;;;5049828;28;20348;-83
2022/10/18 09:51:41;;;;;;;;;;;24.80;93.70;;;;;;5049203;28;20375;-83
2022/10/18 09:54:12;;;;;;;;;;;24.40;93.80;;;;;;5049430;28;19919;-83
2022/10/18 09:56:40;;;;;;;;;;;24.80;94.00;;;;;;5048956;28;19962;-82
2022/10/18 09:59:16;;;;;;;;;;;24.40;95.00;;;;;;5051960;28;20558;-83
2022/10/18 10:01:41;;;;;;;;;;;24.70;95.50;;;;;;5022407;28;19912;-83
2022/10/18 10:04:07;;;;;;;;;;;24.50;93.90;;;;;;5030984;28;20020;-83
2022/10/18 10:06:37;;;;;;;;;;;24.50;94.10;;;;;;5048536;28;19920;-82
2022/10/18 10:09:13;;;;;;;;;;;24.40;93.90;;;;;;5051833;28;19913;-83
2022/10/18 10:11:44;;;;;;;;;;;24.50;93.80;;;;;;5048372;28;19923;-83
2022/10/18 10:14:14;;;;;;;;;;;24.80;92.80;;;;;;5048289;28;19927;-83
2022/10/18 10:16:46;;;;;;;;;;;24.70;92.10;;;;;;5053922;28;20617;-83
2022/10/18 10:19:16;;;;;;;;;;;24.60;92.20;;;;;;5048210;28;19917;-83
2022/10/18 10:21:41;;;;;;;;;;;24.90;91.80;;;;;;5030500;28;19913;-83
2022/10/18 10:24:14;;;;;;;;;;;24.60;91.40;;;;;;5048512;28;19927;-83
2022/10/18 10:26:40;;;;;;;;;;;24.60;91.70;;;;;;5042458;28;19913;-83
2022/10/18 10:29:24;;;;;;;;;;;24.70;91.50;;;;;;5048228;28;19920;-83
2022/10/18 10:32:00;;;;;;;;;;;24.40;91.50;;;;;;5029955;28;19913;-82
2022/10/18 10:34:28;;;;;;;;;;;24.40;91.90;;;;;;5048335;28;19948;-83
2022/10/18 10:36:54;;;;;;;;;;;24.40;91.30;;;;;;5048311;28;20066;-82
2022/10/18 10:39:20;;;;;;;;;;;24.40;92.00;;;;;;5030158;28;19913;-82
2022/10/18 10:41:47;;;;;;;;;;;24.40;91.70;;;;;;5048581;28;19913;-83
2022/10/18 10:44:14;;;;;;;;;;;24.40;91.30;;;;;;5048193;28;19948;-83
2022/10/18 10:46:39;;;;;;;;;;;24.30;91.60;;;;;;5047515;28;19916;-82
2022/10/18 10:49:05;;;;;;;;;;;24.40;91.50;;;;;;5047592;28;20022;-83
2022/10/18 10:51:32;;;;;;;;;;;24.40;92.00;;;;;;5047216;28;19916;-82
2022/10/18 10:54:01;;;;;;;;;;;24.40;91.40;;;;;;5048149;28;19917;-83
2022/10/18 10:56:31;;;;;;;;;;;24.50;91.70;;;;;;5047744;28;19916;-83
2022/10/18 10:59:00;;;;;;;;;;;24.40;92.40;;;;;;5048457;28;19909;-82
2022/10/18 11:01:32;;;;;;;;;;;24.40;91.40;;;;;;5047534;28;20095;-83
2022/10/18 11:03:59;;;;;;;;;;;24.30;91.50;;;;;;5030169;28;19920;-83
2022/10/18 11:06:30;;;;;;;;;;;24.30;90.80;;;;;;5047540;28;19920;-83
2022/10/18 11:08:57;;;;;;;;;;;24.20;91.50;;;;;;5029149;28;19920;-83
2022/10/18 11:11:27;;;;;;;;;;;24.30;91.80;;;;;;5029563;28;19917;-82
2022/10/18 11:14:00;;;;;;;;;;;24.30;92.30;;;;;;5047844;28;19943;-83
2022/10/18 11:16:34;;;;;;;;;;;24.20;91.90;;;;;;5022178;28;19913;-82
2022/10/18 11:19:02;;;;;;;;;;;24.20;91.30;;;;;;5044815;28;19988;-82
2022/10/18 11:21:28;;;;;;;;;;;24.20;92.00;;;;;;5047747;28;19920;-82
2022/10/18 11:23:55;;;;;;;;;;;24.20;91.40;;;;;;5029909;28;19913;-82
2022/10/18 11:26:41;;;;;;;;;;;24.10;91.40;;;;;;5048110;28;20380;-82
2022/10/18 11:29:17;;;;;;;;;;;24.00;91.70;;;;;;5047168;28;19944;-82
2022/10/18 11:31:45;;;;;;;;;;;24.10;91.70;;;;;;5047395;28;19992;-82
2022/10/18 11:34:11;;;;;;;;;;;24.20;91.10;;;;;;5054450;28;19917;-83
2022/10/18 11:36:36;;;;;;;;;;;24.20;91.30;;;;;;5047470;28;20459;-82
2022/10/18 11:39:08;;;;;;;;;;;24.20;90.70;;;;;;5029239;28;20421;-83
2022/10/18 11:41:38;;;;;;;;;;;24.10;91.10;;;;;;5047700;28;19934;-82
2022/10/18 11:44:19;;;;;;;;;;;24.20;91.50;;;;;;5047134;28;19912;-83
2022/10/18 11:46:47;;;;;;;;;;;24.10;91.70;;;;;;5047037;28;20382;-83
2022/10/18 11:49:19;;;;;;;;;;;24.20;91.30;;;;;;5046941;28;19916;-82
2022/10/18 11:52:23;;;;;;;;;;;24.20;91.00;;;;;;5046941;28;20432;-82
2022/10/18 11:54:51;;;;;;;;;;;24.20;91.20;;;;;;4964415;28;20297;-83
2022/10/18 11:57:19;;;;;;;;;;;24.20;91.80;;;;;;4948519;28;20433;-82
2022/10/18 11:59:45;;;;;;;;;;;24.20;90.40;;;;;;4988178;28;20007;-82
2022/10/18 12:02:10;;;;;;;;;;;24.30;90.60;;;;;;5046977;28;20004;-82
2022/10/18 12:04:39;;;;;;;;;;;24.20;90.80;;;;;;5029272;28;19913;-83
2022/10/18 12:07:06;;;;;;;;;;;24.20;91.40;;;;;;5048790;28;20535;-83
2022/10/18 12:09:42;;;;;;;;;;;24.30;91.30;;;;;;5047946;28;19936;-83
2022/10/18 12:12:07;;;;;;;;;;;24.20;90.90;;;;;;5047157;28;19913;-82
2022/10/18 12:14:39;;;;;;;;;;;24.20;90.60;;;;;;5047349;28;19921;-82
2022/10/18 12:17:18;;;;;;;;;;;24.20;91.40;;;;;;5029353;28;19913;-83
2022/10/18 12:19:45;;;;;;;;;;;24.20;90.50;;;;;;5041098;28;19916;-83
2022/10/18 12:22:28;;;;;;;;;;;24.10;90.20;;;;;;5050486;28;19994;-83
2022/10/18 12:24:54;;;;;;;;;;;24.10;90.80;;;;;;5033057;28;19912;-82
2022/10/18 12:27:23;;;;;;;;;;;24.30;90.90;;;;;;5050057;28;19919;-82
2022/10/18 12:29:52;;;;;;;;;;;24.20;91.20;;;;;;5051214;28;19916;-82
2022/10/18 12:32:21;;;;;;;;;;;24.30;91.00;;;;;;5050461;28;19940;-83
2022/10/18 12:34:49;;;;;;;;;;;24.30;90.90;;;;;;5051057;28;20568;-82
2022/10/18 12:37:25;;;;;;;;;;;24.20;92.40;;;;;;5058726;28;20350;-82
2022/10/18 12:39:56;;;;;;;;;;;24.20;91.30;;;;;;5050704;28;19912;-82
2022/10/18 12:42:24;;;;;;;;;;;24.20;91.40;;;;;;5050313;28;19917;-82
2022/10/18 12:45:01;;;;;;;;;;;24.30;91.30;;;;;;5050590;28;19913;-84
2022/10/18 12:47:28;;;;;;;;;;;24.30;91.50;;;;;;5050495;28;20414;-84
2022/10/18 12:49:57;;;;;;;;;;;24.30;91.00;;;;;;5049547;28;19984;-84
2022/10/18 12:52:24;;;;;;;;;;;24.30;91.00;;;;;;5050364;28;19935;-84
2022/10/18 12:55:00;;;;;;;;;;;24.30;91.30;;;;;;5049938;28;19917;-84
2022/10/18 12:57:45;;;;;;;;;;;24.20;91.30;;;;;;5031882;28;19935;-84
2022/10/18 13:00:31;;;;;;;;;;;24.20;91.00;;;;;;5050533;28;20029;-84
2022/10/18 13:03:09;;;;;;;;;;;24.20;91.00;;;;;;5048636;28;19966;-83
2022/10/18 13:05:46;;;;;;;;;;;24.10;90.90;;;;;;5050487;28;19913;-84
2022/10/18 13:08:30;;;;;;;;;;;24.20;90.70;;;;;;5044449;28;19925;-84
2022/10/18 13:11:11;;;;;;;;;;;24.20;91.00;;;;;;5044625;28;19924;-85
2022/10/18 13:13:43;;;;;;;;;;;24.10;91.10;;;;;;5031808;28;19912;-84
2022/10/18 13:16:27;;;;;;;;;;;24.20;90.60;;;;;;5049816;28;20002;-84
2022/10/18 13:19:08;;;;;;;;;;;24.30;90.70;;;;;;5031757;28;19913;-84
2022/10/18 13:21:33;;;;;;;;;;;24.20;90.30;;;;;;5044805;28;19966;-84
2022/10/18 13:24:05;;;;;;;;;;;24.10;90.80;;;;;;5049298;28;19912;-84
2022/10/18 13:26:49;;;;;;;;;;;24.10;91.00;;;;;;5051752;28;19913;-84
2022/10/18 13:29:39;;;;;;;;;;;24.10;90.40;;;;;;5050587;28;19963;-84
2022/10/18 13:32:20;;;;;;;;;;;24.00;90.30;;;;;;5025467;28;19919;-84
2022/10/18 13:34:46;;;;;;;;;;;24.10;90.90;;;;;;5031556;28;19916;-85
2022/10/18 13:37:12;;;;;;;;;;;24.10;91.20;;;;;;5049137;28;19950;-84
2022/10/18 13:39:38;;;;;;;;;;;24.20;90.90;;;;;;5049821;28;19983;-84
2022/10/18 13:42:13;;;;;;;;;;;24.20;90.30;;;;;;5049291;28;19920;-84
2022/10/18 13:44:40;;;;;;;;;;;24.20;91.00;;;;;;5049675;28;19912;-84
2022/10/18 13:47:06;;;;;;;;;;;24.10;91.10;;;;;;5049593;28;19913;-84
2022/10/18 13:49:37;;;;;;;;;;;24.10;90.60;;;;;;5049387;28;19924;-84
2022/10/18 13:52:21;;;;;;;;;;;24.20;90.30;;;;;;5049665;28;19944;-84
2022/10/18 13:54:50;;;;;;;;;;;24.20;91.20;;;;;;5049048;28;19916;-84
2022/10/18 13:57:21;;;;;;;;;;;24.20;90.20;;;;;;5049738;28;20479;-84
2022/10/18 13:59:52;;;;;;;;;;;24.00;90.20;;;;;;5048904;28;19913;-85
2022/10/18 14:02:30;;;;;;;;;;;23.90;90.80;;;;;;5048774;28;19999;-84
2022/10/18 14:04:55;;;;;;;;;;;23.80;91.30;;;;;;5021384;28;19995;-85
2022/10/18 14:07:21;;;;;;;;;;;23.80;91.20;;;;;;5032970;28;19972;-84
2022/10/18 14:09:48;;;;;;;;;;;23.80;91.00;;;;;;5048661;28;20487;-84
2022/10/18 14:12:34;;;;;;;;;;;23.90;90.90;;;;;;5048682;28;19919;-84
2022/10/18 14:15:03;;;;;;;;;;;23.90;90.90;;;;;;5042983;28;19921;-84
2022/10/18 14:17:33;;;;;;;;;;;23.90;91.30;;;;;;5051319;28;19913;-84
2022/10/18 14:20:12;;;;;;;;;;;24.00;90.80;;;;;;5048298;28;19913;-84
2022/10/18 14:22:42;;;;;;;;;;;23.90;91.30;;;;;;5048432;28;19945;-85
2022/10/18 14:25:20;;;;;;;;;;;23.90;91.00;;;;;;5044246;28;19928;-85